sensor_id;sensor_type;location;lat;lon;timestamp;P1;durP1;ratioP1;P2;durP2;ratioP2
13295;SDS011;64850;60.390;-1.374;2022-12-15T00:01:28;3.65;;;1.33;;
13295;SDS011;64850;60.390;-1.374;2022-12-15T00:04:12;4.63;;;1.20;;
13295;SDS011;64850;60.390;-1.374;2022-12-15T00:06:56;6.60;;;1.40;;
13295;SDS011;64850;60.390;-1.374;2022-12-15T00:09:40;7.43;;;1.65;;
13295;SDS011;64850;60.390;-1.374;2022-12-15T00:12:24;3.88;;;1.20;;
13295;SDS011;64850;60.390;-1.374;2022-12-15T00:15:09;6.30;;;1.35;;
13295;SDS011;64850;60.390;-1.374;2022-12-15T00:17:53;6.00;;;1.40;;
13295;SDS011;64850;60.390;-1.374;2022-12-15T00:20:37;6.78;;;1.48;;
13295;SDS011;64850;60.390;-1.374;2022-12-15T00:23:21;12.00;;;1.98;;
13295;SDS011;64850;60.390;-1.374;2022-12-15T00:26:05;4.43;;;1.35;;
13295;SDS011;64850;60.390;-1.374;2022-12-15T00:28:49;4.00;;;2.13;;
13295;SDS011;64850;60.390;-1.374;2022-12-15T00:31:33;6.38;;;1.83;;
13295;SDS011;64850;60.390;-1.374;2022-12-15T00:34:17;4.78;;;1.55;;
13295;SDS011;64850;60.390;-1.374;2022-12-15T00:37:01;8.73;;;1.73;;
13295;SDS011;64850;60.390;-1.374;2022-12-15T00:39:45;5.60;;;1.50;;
13295;SDS011;64850;60.390;-1.374;2022-12-15T00:42:22;4.88;;;1.77;;
13295;SDS011;64850;60.390;-1.374;2022-12-15T00:44:49;8.35;;;2.10;;
13295;SDS011;64850;60.390;-1.374;2022-12-15T00:47:15;12.50;;;2.47;;
13295;SDS011;64850;60.390;-1.374;2022-12-15T00:49:41;9.68;;;2.03;;
13295;SDS011;64850;60.390;-1.374;2022-12-15T00:52:25;7.05;;;2.25;;
13295;SDS011;64850;60.390;-1.374;2022-12-15T00:55:09;8.02;;;1.85;;
13295;SDS011;64850;60.390;-1.374;2022-12-15T00:57:53;11.93;;;2.08;;
13295;SDS011;64850;60.390;-1.374;2022-12-15T01:00:37;9.50;;;2.28;;
13295;SDS011;64850;60.390;-1.374;2022-12-15T01:03:22;10.50;;;2.17;;
13295;SDS011;64850;60.390;-1.374;2022-12-15T01:06:12;11.80;;;2.45;;
13295;SDS011;64850;60.390;-1.374;2022-12-15T01:08:58;9.85;;;2.42;;
13295;SDS011;64850;60.390;-1.374;2022-12-15T01:11:43;7.20;;;2.15;;
13295;SDS011;64850;60.390;-1.374;2022-12-15T01:14:30;11.00;;;2.08;;
13295;SDS011;64850;60.390;-1.374;2022-12-15T01:17:15;5.40;;;2.00;;
13295;SDS011;64850;60.390;-1.374;2022-12-15T01:20:00;7.65;;;2.05;;
13295;SDS011;64850;60.390;-1.374;2022-12-15T01:22:46;12.73;;;2.38;;
13295;SDS011;64850;60.390;-1.374;2022-12-15T01:25:13;13.43;;;2.40;;
13295;SDS011;64850;60.390;-1.374;2022-12-15T01:27:40;13.40;;;2.58;;
13295;SDS011;64850;60.390;-1.374;2022-12-15T01:30:07;9.88;;;2.20;;
13295;SDS011;64850;60.390;-1.374;2022-12-15T01:32:34;3.95;;;1.55;;
13295;SDS011;64850;60.390;-1.374;2022-12-15T01:35:01;6.72;;;2.05;;
13295;SDS011;64850;60.390;-1.374;2022-12-15T01:37:28;9.43;;;1.90;;
13295;SDS011;64850;60.390;-1.374;2022-12-15T01:39:54;11.40;;;2.60;;
13295;SDS011;64850;60.390;-1.374;2022-12-15T01:42:38;10.95;;;2.40;;
13295;SDS011;64850;60.390;-1.374;2022-12-15T01:47:49;16.45;;;2.75;;
13295;SDS011;64850;60.390;-1.374;2022-12-15T01:50:16;14.18;;;3.00;;
13295;SDS011;64850;60.390;-1.374;2022-12-15T01:52:43;13.65;;;3.30;;
13295;SDS011;64850;60.390;-1.374;2022-12-15T01:55:11;12.40;;;2.63;;
13295;SDS011;64850;60.390;-1.374;2022-12-15T01:57:38;6.90;;;1.92;;
13295;SDS011;64850;60.390;-1.374;2022-12-15T02:00:05;8.45;;;2.50;;
13295;SDS011;64850;60.390;-1.374;2022-12-15T02:02:32;9.60;;;2.45;;
13295;SDS011;64850;60.390;-1.374;2022-12-15T02:05:02;8.02;;;2.30;;
13295;SDS011;64850;60.390;-1.374;2022-12-15T02:07:29;11.23;;;2.72;;
13295;SDS011;64850;60.390;-1.374;2022-12-15T02:09:55;7.43;;;2.20;;
13295;SDS011;64850;60.390;-1.374;2022-12-15T02:18:12;5.00;;;1.40;;
13295;SDS011;64850;60.390;-1.374;2022-12-15T02:32:09;5.53;;;1.30;;
13295;SDS011;64850;60.390;-1.374;2022-12-15T02:37:13;3.33;;;1.20;;
13295;SDS011;64850;60.390;-1.374;2022-12-15T02:40:01;2.92;;;1.33;;
13295;SDS011;64850;60.390;-1.374;2022-12-15T02:42:28;5.10;;;1.10;;
13295;SDS011;64850;60.390;-1.374;2022-12-15T02:45:09;3.28;;;1.23;;
13295;SDS011;64850;60.390;-1.374;2022-12-15T02:47:42;4.07;;;1.23;;
13295;SDS011;64850;60.390;-1.374;2022-12-15T02:50:37;4.00;;;1.10;;
13295;SDS011;64850;60.390;-1.374;2022-12-15T02:55:59;4.38;;;1.50;;
13295;SDS011;64850;60.390;-1.374;2022-12-15T03:01:36;5.88;;;1.58;;
13295;SDS011;64850;60.390;-1.374;2022-12-15T03:04:04;5.63;;;1.40;;
13295;SDS011;64850;60.390;-1.374;2022-12-15T03:06:32;4.30;;;1.77;;
13295;SDS011;64850;60.390;-1.374;2022-12-15T03:08:58;6.60;;;1.50;;
13295;SDS011;64850;60.390;-1.374;2022-12-15T03:11:24;5.72;;;1.35;;
13295;SDS011;64850;60.390;-1.374;2022-12-15T03:13:50;3.45;;;1.33;;
13295;SDS011;64850;60.390;-1.374;2022-12-15T03:16:17;3.97;;;1.42;;
13295;SDS011;64850;60.390;-1.374;2022-12-15T03:18:43;8.80;;;1.92;;
13295;SDS011;64850;60.390;-1.374;2022-12-15T03:21:09;5.15;;;1.50;;
13295;SDS011;64850;60.390;-1.374;2022-12-15T03:23:35;5.47;;;1.67;;
13295;SDS011;64850;60.390;-1.374;2022-12-15T03:26:00;5.50;;;1.40;;
13295;SDS011;64850;60.390;-1.374;2022-12-15T03:28:26;4.10;;;1.38;;
13295;SDS011;64850;60.390;-1.374;2022-12-15T03:30:52;9.65;;;1.60;;
13295;SDS011;64850;60.390;-1.374;2022-12-15T03:33:18;6.20;;;1.88;;
13295;SDS011;64850;60.390;-1.374;2022-12-15T03:35:45;14.63;;;1.70;;
13295;SDS011;64850;60.390;-1.374;2022-12-15T03:38:11;4.45;;;1.90;;
13295;SDS011;64850;60.390;-1.374;2022-12-15T03:40:37;5.32;;;1.67;;
13295;SDS011;64850;60.390;-1.374;2022-12-15T03:43:03;7.40;;;1.60;;
13295;SDS011;64850;60.390;-1.374;2022-12-15T03:45:29;8.10;;;2.10;;
13295;SDS011;64850;60.390;-1.374;2022-12-15T03:47:55;8.52;;;2.22;;
13295;SDS011;64850;60.390;-1.374;2022-12-15T03:50:22;6.45;;;1.70;;
13295;SDS011;64850;60.390;-1.374;2022-12-15T03:52:50;8.35;;;2.00;;
13295;SDS011;64850;60.390;-1.374;2022-12-15T03:55:19;12.60;;;2.25;;
13295;SDS011;64850;60.390;-1.374;2022-12-15T03:57:46;6.18;;;2.00;;
13295;SDS011;64850;60.390;-1.374;2022-12-15T04:00:12;9.10;;;2.20;;
13295;SDS011;64850;60.390;-1.374;2022-12-15T04:02:39;10.00;;;2.35;;
13295;SDS011;64850;60.390;-1.374;2022-12-15T04:05:06;12.55;;;2.35;;
13295;SDS011;64850;60.390;-1.374;2022-12-15T04:07:32;11.93;;;2.03;;
13295;SDS011;64850;60.390;-1.374;2022-12-15T04:09:57;9.77;;;2.25;;
13295;SDS011;64850;60.390;-1.374;2022-12-15T04:12:23;8.10;;;2.17;;
13295;SDS011;64850;60.390;-1.374;2022-12-15T04:14:49;11.18;;;1.92;;
13295;SDS011;64850;60.390;-1.374;2022-12-15T04:17:15;9.98;;;2.08;;
13295;SDS011;64850;60.390;-1.374;2022-12-15T04:19:41;11.40;;;2.70;;
13295;SDS011;64850;60.390;-1.374;2022-12-15T04:22:25;10.93;;;2.22;;
13295;SDS011;64850;60.390;-1.374;2022-12-15T04:24:51;6.63;;;2.40;;
13295;SDS011;64850;60.390;-1.374;2022-12-15T04:27:35;4.28;;;1.77;;
13295;SDS011;64850;60.390;-1.374;2022-12-15T04:30:19;9.32;;;2.45;;
13295;SDS011;64850;60.390;-1.374;2022-12-15T04:33:03;6.90;;;1.95;;
13295;SDS011;64850;60.390;-1.374;2022-12-15T04:35:48;5.50;;;2.10;;
13295;SDS011;64850;60.390;-1.374;2022-12-15T04:38:34;8.88;;;2.25;;
13295;SDS011;64850;60.390;-1.374;2022-12-15T04:41:18;8.02;;;2.05;;
13295;SDS011;64850;60.390;-1.374;2022-12-15T04:44:05;7.20;;;1.90;;
13295;SDS011;64850;60.390;-1.374;2022-12-15T04:46:50;11.82;;;2.50;;
13295;SDS011;64850;60.390;-1.374;2022-12-15T04:49:34;7.97;;;2.25;;
13295;SDS011;64850;60.390;-1.374;2022-12-15T04:52:18;7.32;;;2.20;;
13295;SDS011;64850;60.390;-1.374;2022-12-15T04:55:02;6.68;;;2.05;;
13295;SDS011;64850;60.390;-1.374;2022-12-15T04:57:47;9.25;;;2.15;;
13295;SDS011;64850;60.390;-1.374;2022-12-15T05:00:31;6.90;;;1.85;;
13295;SDS011;64850;60.390;-1.374;2022-12-15T05:03:15;10.32;;;1.90;;
13295;SDS011;64850;60.390;-1.374;2022-12-15T05:05:59;8.32;;;2.00;;
13295;SDS011;64850;60.390;-1.374;2022-12-15T05:08:43;11.70;;;2.80;;
13295;SDS011;64850;60.390;-1.374;2022-12-15T05:11:27;13.63;;;2.10;;
13295;SDS011;64850;60.390;-1.374;2022-12-15T05:14:11;11.23;;;2.83;;
13295;SDS011;64850;60.390;-1.374;2022-12-15T05:16:55;12.50;;;2.42;;
13295;SDS011;64850;60.390;-1.374;2022-12-15T05:19:40;9.48;;;2.25;;
13295;SDS011;64850;60.390;-1.374;2022-12-15T05:22:24;11.32;;;2.53;;
13295;SDS011;64850;60.390;-1.374;2022-12-15T05:25:11;12.95;;;3.25;;
13295;SDS011;64850;60.390;-1.374;2022-12-15T05:27:55;6.93;;;2.30;;
13295;SDS011;64850;60.390;-1.374;2022-12-15T05:30:39;8.73;;;1.92;;
13295;SDS011;64850;60.390;-1.374;2022-12-15T05:33:26;9.52;;;2.40;;
13295;SDS011;64850;60.390;-1.374;2022-12-15T05:35:54;5.25;;;2.10;;
13295;SDS011;64850;60.390;-1.374;2022-12-15T05:38:22;12.75;;;2.95;;
13295;SDS011;64850;60.390;-1.374;2022-12-15T05:40:48;11.88;;;2.20;;
13295;SDS011;64850;60.390;-1.374;2022-12-15T05:43:13;6.28;;;1.85;;
13295;SDS011;64850;60.390;-1.374;2022-12-15T05:45:39;12.85;;;2.13;;
13295;SDS011;64850;60.390;-1.374;2022-12-15T05:48:05;5.05;;;1.77;;
13295;SDS011;64850;60.390;-1.374;2022-12-15T05:50:31;7.80;;;1.90;;
13295;SDS011;64850;60.390;-1.374;2022-12-15T05:52:57;10.07;;;2.03;;
13295;SDS011;64850;60.390;-1.374;2022-12-15T05:55:23;6.43;;;2.00;;
13295;SDS011;64850;60.390;-1.374;2022-12-15T05:57:49;8.32;;;1.90;;
13295;SDS011;64850;60.390;-1.374;2022-12-15T06:00:19;5.68;;;1.50;;
13295;SDS011;64850;60.390;-1.374;2022-12-15T06:02:45;8.55;;;1.83;;
13295;SDS011;64850;60.390;-1.374;2022-12-15T06:05:11;8.70;;;1.60;;
13295;SDS011;64850;60.390;-1.374;2022-12-15T06:07:37;7.15;;;1.83;;
13295;SDS011;64850;60.390;-1.374;2022-12-15T06:10:03;8.85;;;2.15;;
13295;SDS011;64850;60.390;-1.374;2022-12-15T06:12:29;4.95;;;1.88;;
13295;SDS011;64850;60.390;-1.374;2022-12-15T06:14:55;11.50;;;1.90;;
13295;SDS011;64850;60.390;-1.374;2022-12-15T06:17:21;8.13;;;1.60;;
13295;SDS011;64850;60.390;-1.374;2022-12-15T06:19:47;7.25;;;1.40;;
13295;SDS011;64850;60.390;-1.374;2022-12-15T06:22:13;4.00;;;1.65;;
13295;SDS011;64850;60.390;-1.374;2022-12-15T06:24:38;5.78;;;1.63;;
13295;SDS011;64850;60.390;-1.374;2022-12-15T06:27:04;4.75;;;1.40;;
13295;SDS011;64850;60.390;-1.374;2022-12-15T06:29:30;6.30;;;1.80;;
13295;SDS011;64850;60.390;-1.374;2022-12-15T06:31:56;6.13;;;1.85;;
13295;SDS011;64850;60.390;-1.374;2022-12-15T06:34:22;7.32;;;1.70;;
13295;SDS011;64850;60.390;-1.374;2022-12-15T06:36:47;4.57;;;1.80;;
13295;SDS011;64850;60.390;-1.374;2022-12-15T06:39:14;4.60;;;1.60;;
13295;SDS011;64850;60.390;-1.374;2022-12-15T06:41:41;7.75;;;1.80;;
13295;SDS011;64850;60.390;-1.374;2022-12-15T06:44:09;10.02;;;1.85;;
13295;SDS011;64850;60.390;-1.374;2022-12-15T06:46:37;6.22;;;1.90;;
13295;SDS011;64850;60.390;-1.374;2022-12-15T06:49:03;6.80;;;1.95;;
13295;SDS011;64850;60.390;-1.374;2022-12-15T06:51:29;4.03;;;1.30;;
13295;SDS011;64850;60.390;-1.374;2022-12-15T06:53:55;7.82;;;1.70;;
13295;SDS011;64850;60.390;-1.374;2022-12-15T06:56:28;5.75;;;2.42;;
13295;SDS011;64850;60.390;-1.374;2022-12-15T06:58:55;9.45;;;1.88;;
13295;SDS011;64850;60.390;-1.374;2022-12-15T07:01:23;6.88;;;2.10;;
13295;SDS011;64850;60.390;-1.374;2022-12-15T07:03:49;6.72;;;1.88;;
13295;SDS011;64850;60.390;-1.374;2022-12-15T07:06:16;13.70;;;2.60;;
13295;SDS011;64850;60.390;-1.374;2022-12-15T07:08:43;8.07;;;2.38;;
13295;SDS011;64850;60.390;-1.374;2022-12-15T07:11:12;10.15;;;2.70;;
13295;SDS011;64850;60.390;-1.374;2022-12-15T07:13:38;8.18;;;1.92;;
13295;SDS011;64850;60.390;-1.374;2022-12-15T07:16:05;4.55;;;1.63;;
13295;SDS011;64850;60.390;-1.374;2022-12-15T07:18:31;8.75;;;2.05;;
13295;SDS011;64850;60.390;-1.374;2022-12-15T07:21:05;3.75;;;1.27;;
13295;SDS011;64850;60.390;-1.374;2022-12-15T07:23:32;7.18;;;1.52;;
13295;SDS011;64850;60.390;-1.374;2022-12-15T07:26:08;1.95;;;1.20;;
13295;SDS011;64850;60.390;-1.374;2022-12-15T07:28:35;2.95;;;1.30;;
13295;SDS011;64850;60.390;-1.374;2022-12-15T07:31:04;6.72;;;1.52;;
13295;SDS011;64850;60.390;-1.374;2022-12-15T07:33:32;2.13;;;1.23;;
13295;SDS011;64850;60.390;-1.374;2022-12-15T07:35:58;4.47;;;1.38;;
13295;SDS011;64850;60.390;-1.374;2022-12-15T07:38:25;1.10;;;0.93;;
13295;SDS011;64850;60.390;-1.374;2022-12-15T07:40:52;2.75;;;0.93;;
13295;SDS011;64850;60.390;-1.374;2022-12-15T07:43:17;2.10;;;1.20;;
13295;SDS011;64850;60.390;-1.374;2022-12-15T07:45:43;8.15;;;1.30;;
13295;SDS011;64850;60.390;-1.374;2022-12-15T07:48:15;5.47;;;1.20;;
13295;SDS011;64850;60.390;-1.374;2022-12-15T07:50:40;2.05;;;1.00;;
13295;SDS011;64850;60.390;-1.374;2022-12-15T07:53:06;4.68;;;0.93;;
13295;SDS011;64850;60.390;-1.374;2022-12-15T07:55:32;9.48;;;1.58;;
13295;SDS011;64850;60.390;-1.374;2022-12-15T07:57:59;2.25;;;1.00;;
13295;SDS011;64850;60.390;-1.374;2022-12-15T08:00:25;3.15;;;0.90;;
13295;SDS011;64850;60.390;-1.374;2022-12-15T08:02:52;1.77;;;0.98;;
13295;SDS011;64850;60.390;-1.374;2022-12-15T08:05:18;8.23;;;1.20;;
13295;SDS011;64850;60.390;-1.374;2022-12-15T08:07:43;3.92;;;1.33;;
13295;SDS011;64850;60.390;-1.374;2022-12-15T08:10:09;3.90;;;1.15;;
13295;SDS011;64850;60.390;-1.374;2022-12-15T08:12:35;2.97;;;1.10;;
13295;SDS011;64850;60.390;-1.374;2022-12-15T08:15:01;3.25;;;1.25;;
13295;SDS011;64850;60.390;-1.374;2022-12-15T08:17:27;8.05;;;1.38;;
13295;SDS011;64850;60.390;-1.374;2022-12-15T08:19:53;6.15;;;1.35;;
13295;SDS011;64850;60.390;-1.374;2022-12-15T08:22:19;4.35;;;1.55;;
13295;SDS011;64850;60.390;-1.374;2022-12-15T08:24:45;4.93;;;1.52;;
13295;SDS011;64850;60.390;-1.374;2022-12-15T08:27:12;4.93;;;1.60;;
13295;SDS011;64850;60.390;-1.374;2022-12-15T08:29:38;7.07;;;1.67;;
13295;SDS011;64850;60.390;-1.374;2022-12-15T08:32:03;6.82;;;1.85;;
13295;SDS011;64850;60.390;-1.374;2022-12-15T08:34:29;4.75;;;1.70;;
13295;SDS011;64850;60.390;-1.374;2022-12-15T08:36:55;7.38;;;1.75;;
13295;SDS011;64850;60.390;-1.374;2022-12-15T08:39:21;3.65;;;1.40;;
13295;SDS011;64850;60.390;-1.374;2022-12-15T08:41:49;4.85;;;1.63;;
13295;SDS011;64850;60.390;-1.374;2022-12-15T08:44:15;5.50;;;1.35;;
13295;SDS011;64850;60.390;-1.374;2022-12-15T08:46:41;4.80;;;1.60;;
13295;SDS011;64850;60.390;-1.374;2022-12-15T08:49:10;3.75;;;1.70;;
13295;SDS011;64850;60.390;-1.374;2022-12-15T08:56:00;7.20;;;1.83;;
13295;SDS011;64850;60.390;-1.374;2022-12-15T08:59:09;9.45;;;1.88;;
13295;SDS011;64850;60.390;-1.374;2022-12-15T09:01:35;6.95;;;1.65;;
13295;SDS011;64850;60.390;-1.374;2022-12-15T09:04:06;6.07;;;1.63;;
13295;SDS011;64850;60.390;-1.374;2022-12-15T09:06:33;5.93;;;1.95;;
13295;SDS011;64850;60.390;-1.374;2022-12-15T09:09:04;9.52;;;2.00;;
13295;SDS011;64850;60.390;-1.374;2022-12-15T09:11:32;8.73;;;2.03;;
13295;SDS011;64850;60.390;-1.374;2022-12-15T09:13:59;7.50;;;2.00;;
13295;SDS011;64850;60.390;-1.374;2022-12-15T09:16:24;5.03;;;2.25;;
13295;SDS011;64850;60.390;-1.374;2022-12-15T09:18:53;9.73;;;1.90;;
13295;SDS011;64850;60.390;-1.374;2022-12-15T09:21:21;6.53;;;1.95;;
13295;SDS011;64850;60.390;-1.374;2022-12-15T09:23:50;5.97;;;1.40;;
13295;SDS011;64850;60.390;-1.374;2022-12-15T09:26:18;8.50;;;1.67;;
13295;SDS011;64850;60.390;-1.374;2022-12-15T09:28:45;2.30;;;1.30;;
13295;SDS011;64850;60.390;-1.374;2022-12-15T09:31:13;3.63;;;1.30;;
13295;SDS011;64850;60.390;-1.374;2022-12-15T09:33:41;3.80;;;1.13;;
13295;SDS011;64850;60.390;-1.374;2022-12-15T09:36:08;3.28;;;1.20;;
13295;SDS011;64850;60.390;-1.374;2022-12-15T09:38:35;6.50;;;1.45;;
13295;SDS011;64850;60.390;-1.374;2022-12-15T09:41:47;4.63;;;1.20;;
13295;SDS011;64850;60.390;-1.374;2022-12-15T09:48:58;2.53;;;1.13;;
13295;SDS011;64850;60.390;-1.374;2022-12-15T09:51:32;3.85;;;1.00;;
13295;SDS011;64850;60.390;-1.374;2022-12-15T09:54:20;2.60;;;0.90;;
13295;SDS011;64850;60.390;-1.374;2022-12-15T09:56:51;3.42;;;0.90;;
13295;SDS011;64850;60.390;-1.374;2022-12-15T09:59:36;2.47;;;1.00;;
13295;SDS011;64850;60.390;-1.374;2022-12-15T10:05:30;5.50;;;0.95;;
13295;SDS011;64850;60.390;-1.374;2022-12-15T10:08:11;4.65;;;0.88;;
13295;SDS011;64850;60.390;-1.374;2022-12-15T10:16:03;2.10;;;0.90;;
13295;SDS011;64850;60.390;-1.374;2022-12-15T10:18:38;5.20;;;0.90;;
13295;SDS011;64850;60.390;-1.374;2022-12-15T10:21:14;1.70;;;0.90;;
13295;SDS011;64850;60.390;-1.374;2022-12-15T10:23:40;2.70;;;0.90;;
13295;SDS011;64850;60.390;-1.374;2022-12-15T10:31:25;1.58;;;1.10;;
13295;SDS011;64850;60.390;-1.374;2022-12-15T10:33:56;3.78;;;1.40;;
13295;SDS011;64850;60.390;-1.374;2022-12-15T10:36:29;2.58;;;1.67;;
13295;SDS011;64850;60.390;-1.374;2022-12-15T10:38:55;3.13;;;1.50;;
13295;SDS011;64850;60.390;-1.374;2022-12-15T10:41:24;3.75;;;2.20;;
13295;SDS011;64850;60.390;-1.374;2022-12-15T10:43:55;3.92;;;1.98;;
13295;SDS011;64850;60.390;-1.374;2022-12-15T10:46:22;5.25;;;1.90;;
13295;SDS011;64850;60.390;-1.374;2022-12-15T10:48:57;5.25;;;2.20;;
13295;SDS011;64850;60.390;-1.374;2022-12-15T10:51:44;1.50;;;1.27;;
13295;SDS011;64850;60.390;-1.374;2022-12-15T10:54:15;6.95;;;2.40;;
13295;SDS011;64850;60.390;-1.374;2022-12-15T10:59:30;4.25;;;1.85;;
13295;SDS011;64850;60.390;-1.374;2022-12-15T11:04:56;3.42;;;1.30;;
13295;SDS011;64850;60.390;-1.374;2022-12-15T11:07:32;2.65;;;1.75;;
13295;SDS011;64850;60.390;-1.374;2022-12-15T11:10:02;1.30;;;1.00;;
13295;SDS011;64850;60.390;-1.374;2022-12-15T11:12:39;2.03;;;1.33;;
13295;SDS011;64850;60.390;-1.374;2022-12-15T11:17:54;2.90;;;1.05;;
13295;SDS011;64850;60.390;-1.374;2022-12-15T11:20:21;1.30;;;1.15;;
13295;SDS011;64850;60.390;-1.374;2022-12-15T11:22:57;3.20;;;1.50;;
13295;SDS011;64850;60.390;-1.374;2022-12-15T11:25:45;2.55;;;1.25;;
13295;SDS011;64850;60.390;-1.374;2022-12-15T11:28:19;6.20;;;1.55;;
13295;SDS011;64850;60.390;-1.374;2022-12-15T11:31:01;5.85;;;1.80;;
13295;SDS011;64850;60.390;-1.374;2022-12-15T11:33:42;4.63;;;1.40;;
13295;SDS011;64850;60.390;-1.374;2022-12-15T11:36:11;3.60;;;1.30;;
13295;SDS011;64850;60.390;-1.374;2022-12-15T11:38:48;3.85;;;1.10;;
13295;SDS011;64850;60.390;-1.374;2022-12-15T11:46:26;0.90;;;0.90;;
13295;SDS011;64850;60.390;-1.374;2022-12-15T11:51:58;4.90;;;0.80;;
13295;SDS011;64850;60.390;-1.374;2022-12-15T11:54:37;4.93;;;1.27;;
13295;SDS011;64850;60.390;-1.374;2022-12-15T11:57:19;5.05;;;1.10;;
13295;SDS011;64850;60.390;-1.374;2022-12-15T12:00:07;3.70;;;1.30;;
13295;SDS011;64850;60.390;-1.374;2022-12-15T12:08:14;2.88;;;1.17;;
13295;SDS011;64850;60.390;-1.374;2022-12-15T12:13:44;1.25;;;1.08;;
13295;SDS011;64850;60.390;-1.374;2022-12-15T12:19:16;1.00;;;0.90;;
13295;SDS011;64850;60.390;-1.374;2022-12-15T12:21:48;0.80;;;0.80;;
13295;SDS011;64850;60.390;-1.374;2022-12-15T12:29:54;0.90;;;0.70;;
13295;SDS011;64850;60.390;-1.374;2022-12-15T12:37:57;2.97;;;0.82;;
13295;SDS011;64850;60.390;-1.374;2022-12-15T12:43:22;3.83;;;0.90;;
13295;SDS011;64850;60.390;-1.374;2022-12-15T12:45:58;2.08;;;1.00;;
13295;SDS011;64850;60.390;-1.374;2022-12-15T12:48:29;2.10;;;1.00;;
13295;SDS011;64850;60.390;-1.374;2022-12-15T12:53:55;3.17;;;1.10;;
13295;SDS011;64850;60.390;-1.374;2022-12-15T12:56:30;2.58;;;1.00;;
13295;SDS011;64850;60.390;-1.374;2022-12-15T13:04:59;4.38;;;1.52;;
13295;SDS011;64850;60.390;-1.374;2022-12-15T13:07:31;1.10;;;0.77;;
13295;SDS011;64850;60.390;-1.374;2022-12-15T13:15:16;0.82;;;0.80;;
13295;SDS011;64850;60.390;-1.374;2022-12-15T13:18:19;1.88;;;0.80;;
13295;SDS011;64850;60.390;-1.374;2022-12-15T13:20:55;3.00;;;0.95;;
13295;SDS011;64850;60.390;-1.374;2022-12-15T13:39:49;4.10;;;1.17;;
13295;SDS011;64850;60.390;-1.374;2022-12-15T13:46:52;3.00;;;1.40;;
13295;SDS011;64850;60.390;-1.374;2022-12-15T13:51:59;3.22;;;1.20;;
13295;SDS011;64850;60.390;-1.374;2022-12-15T13:54:32;3.90;;;1.92;;
13295;SDS011;64850;60.390;-1.374;2022-12-15T13:57:14;2.67;;;1.17;;
13295;SDS011;64850;60.390;-1.374;2022-12-15T13:59:42;5.10;;;1.27;;
13295;SDS011;64850;60.390;-1.374;2022-12-15T14:02:27;6.05;;;1.35;;
13295;SDS011;64850;60.390;-1.374;2022-12-15T14:05:17;4.53;;;1.17;;
13295;SDS011;64850;60.390;-1.374;2022-12-15T14:10:26;3.70;;;1.40;;
13295;SDS011;64850;60.390;-1.374;2022-12-15T14:15:35;5.32;;;1.58;;
13295;SDS011;64850;60.390;-1.374;2022-12-15T14:18:20;5.38;;;1.30;;
13295;SDS011;64850;60.390;-1.374;2022-12-15T14:21:03;3.90;;;1.35;;
13295;SDS011;64850;60.390;-1.374;2022-12-15T14:23:41;8.15;;;1.63;;
13295;SDS011;64850;60.390;-1.374;2022-12-15T14:26:12;5.32;;;1.33;;
13295;SDS011;64850;60.390;-1.374;2022-12-15T14:28:40;8.10;;;1.70;;
13295;SDS011;64850;60.390;-1.374;2022-12-15T14:31:23;4.85;;;1.20;;
13295;SDS011;64850;60.390;-1.374;2022-12-15T14:34:04;7.50;;;1.67;;
13295;SDS011;64850;60.390;-1.374;2022-12-15T14:36:34;9.00;;;2.05;;
13295;SDS011;64850;60.390;-1.374;2022-12-15T14:39:02;8.93;;;1.73;;
13295;SDS011;64850;60.390;-1.374;2022-12-15T14:41:31;7.05;;;1.63;;
13295;SDS011;64850;60.390;-1.374;2022-12-15T14:44:14;7.03;;;1.67;;
13295;SDS011;64850;60.390;-1.374;2022-12-15T14:46:52;9.45;;;2.03;;
13295;SDS011;64850;60.390;-1.374;2022-12-15T14:49:23;4.38;;;1.83;;
13295;SDS011;64850;60.390;-1.374;2022-12-15T14:52:02;8.38;;;1.80;;
13295;SDS011;64850;60.390;-1.374;2022-12-15T14:54:33;3.85;;;1.15;;
13295;SDS011;64850;60.390;-1.374;2022-12-15T14:57:09;6.45;;;1.65;;
13295;SDS011;64850;60.390;-1.374;2022-12-15T14:59:42;3.13;;;1.20;;
13295;SDS011;64850;60.390;-1.374;2022-12-15T15:05:00;8.23;;;1.40;;
13295;SDS011;64850;60.390;-1.374;2022-12-15T15:07:28;6.07;;;1.50;;
13295;SDS011;64850;60.390;-1.374;2022-12-15T15:09:59;9.30;;;1.38;;
13295;SDS011;64850;60.390;-1.374;2022-12-15T15:12:40;4.03;;;1.38;;
13295;SDS011;64850;60.390;-1.374;2022-12-15T15:15:13;6.75;;;1.73;;
13295;SDS011;64850;60.390;-1.374;2022-12-15T15:20:46;2.35;;;0.70;;
13295;SDS011;64850;60.390;-1.374;2022-12-15T15:25:38;2.78;;;0.95;;
13295;SDS011;64850;60.390;-1.374;2022-12-15T15:30:44;1.13;;;0.70;;
13295;SDS011;64850;60.390;-1.374;2022-12-15T15:33:15;0.60;;;0.60;;
13295;SDS011;64850;60.390;-1.374;2022-12-15T15:35:41;0.73;;;0.68;;
13295;SDS011;64850;60.390;-1.374;2022-12-15T15:38:16;2.25;;;0.70;;
13295;SDS011;64850;60.390;-1.374;2022-12-15T15:41:01;0.50;;;0.50;;
13295;SDS011;64850;60.390;-1.374;2022-12-15T15:43:38;0.60;;;0.60;;
13295;SDS011;64850;60.390;-1.374;2022-12-15T15:46:05;2.30;;;0.88;;
13295;SDS011;64850;60.390;-1.374;2022-12-15T15:48:54;2.47;;;1.20;;
13295;SDS011;64850;60.390;-1.374;2022-12-15T15:51:23;6.82;;;1.10;;
13295;SDS011;64850;60.390;-1.374;2022-12-15T15:53:50;3.28;;;1.10;;
13295;SDS011;64850;60.390;-1.374;2022-12-15T15:56:17;2.28;;;1.00;;
13295;SDS011;64850;60.390;-1.374;2022-12-15T15:58:44;5.50;;;1.30;;
13295;SDS011;64850;60.390;-1.374;2022-12-15T16:01:10;2.20;;;1.40;;
13295;SDS011;64850;60.390;-1.374;2022-12-15T16:03:36;6.60;;;1.20;;
13295;SDS011;64850;60.390;-1.374;2022-12-15T16:06:02;8.75;;;1.65;;
13295;SDS011;64850;60.390;-1.374;2022-12-15T16:08:31;1.88;;;1.17;;
13295;SDS011;64850;60.390;-1.374;2022-12-15T16:11:00;1.75;;;1.10;;
13295;SDS011;64850;60.390;-1.374;2022-12-15T16:13:26;3.63;;;0.98;;
13295;SDS011;64850;60.390;-1.374;2022-12-15T16:15:53;5.30;;;1.08;;
13295;SDS011;64850;60.390;-1.374;2022-12-15T16:18:21;2.97;;;1.10;;
13295;SDS011;64850;60.390;-1.374;2022-12-15T16:20:48;3.45;;;1.13;;
13295;SDS011;64850;60.390;-1.374;2022-12-15T16:23:16;5.45;;;1.17;;
13295;SDS011;64850;60.390;-1.374;2022-12-15T16:25:56;3.38;;;1.00;;
13295;SDS011;64850;60.390;-1.374;2022-12-15T16:28:24;7.78;;;1.42;;
13295;SDS011;64850;60.390;-1.374;2022-12-15T16:30:52;5.22;;;1.40;;
13295;SDS011;64850;60.390;-1.374;2022-12-15T16:33:19;5.07;;;1.23;;
13295;SDS011;64850;60.390;-1.374;2022-12-15T16:35:45;3.72;;;1.55;;
13295;SDS011;64850;60.390;-1.374;2022-12-15T16:38:15;6.47;;;1.50;;
13295;SDS011;64850;60.390;-1.374;2022-12-15T16:40:52;6.25;;;1.30;;
13295;SDS011;64850;60.390;-1.374;2022-12-15T16:43:23;7.78;;;1.33;;
13295;SDS011;64850;60.390;-1.374;2022-12-15T16:45:52;8.05;;;1.35;;
13295;SDS011;64850;60.390;-1.374;2022-12-15T16:48:18;3.42;;;1.42;;
13295;SDS011;64850;60.390;-1.374;2022-12-15T16:50:47;3.22;;;1.20;;
13295;SDS011;64850;60.390;-1.374;2022-12-15T16:53:29;6.10;;;1.33;;
13295;SDS011;64850;60.390;-1.374;2022-12-15T16:55:57;7.05;;;1.38;;
13295;SDS011;64850;60.390;-1.374;2022-12-15T16:58:24;4.70;;;1.50;;
13295;SDS011;64850;60.390;-1.374;2022-12-15T17:00:51;3.63;;;1.70;;
13295;SDS011;64850;60.390;-1.374;2022-12-15T17:03:18;6.30;;;1.65;;
13295;SDS011;64850;60.390;-1.374;2022-12-15T17:05:53;5.82;;;1.48;;
13295;SDS011;64850;60.390;-1.374;2022-12-15T17:08:26;12.20;;;2.00;;
13295;SDS011;64850;60.390;-1.374;2022-12-15T17:11:04;7.80;;;1.83;;
13295;SDS011;64850;60.390;-1.374;2022-12-15T17:13:34;10.23;;;2.30;;
13295;SDS011;64850;60.390;-1.374;2022-12-15T17:16:03;15.07;;;2.42;;
13295;SDS011;64850;60.390;-1.374;2022-12-15T17:18:38;10.40;;;2.17;;
13295;SDS011;64850;60.390;-1.374;2022-12-15T17:23:51;11.50;;;3.17;;
13295;SDS011;64850;60.390;-1.374;2022-12-15T17:26:21;11.27;;;1.92;;
13295;SDS011;64850;60.390;-1.374;2022-12-15T17:28:55;6.15;;;1.80;;
13295;SDS011;64850;60.390;-1.374;2022-12-15T17:31:25;9.25;;;2.72;;
13295;SDS011;64850;60.390;-1.374;2022-12-15T17:33:51;12.30;;;2.60;;